Elon, North Carolina
Current Conditions -  °F | °C
As of 10:54 AM on Wednesday 22 Oct 2014 (Local Time) from KBUY Reporting Station
Clear Clear  
Wind Chill: 59°   Ceiling: Unl
Heat Index: 59°   Visibility: 10mi
Dew Point: 38°   Wind: 14mph
Humidity: 46%   Direction: 320°NW
Pressure: 30.03"   Gusts: 23mph
Location:  36.1°N, 79.51°W
Report Text: KBUY 221454Z AUTO 32012G20KT 10SM CLR 15/03 A3003 RMK AO2 SLP168 T01500033 51012
Loading
Personal Weather Stations






























Interactive Weather Map
Tropical Storm Tracking
New forecast layout! Learn more

10-Day Weather Forecast

Advertisements
Track Severe Weather on mobile